sensor_id;sensor_type;location;lat;lon;timestamp;P1;P2;P0
30713;PMS7003;17465;47.934;33.430;2022-11-20T00:01:38;20.50;20.50;12.00
30713;PMS7003;17465;47.934;33.430;2022-11-20T00:04:09;17.75;17.75;10.75
30713;PMS7003;17465;47.934;33.430;2022-11-20T00:06:40;29.75;28.50;17.25
30713;PMS7003;17465;47.934;33.430;2022-11-20T00:09:11;31.50;24.25;15.25
30713;PMS7003;17465;47.934;33.430;2022-11-20T00:11:43;40.75;37.00;21.00
30713;PMS7003;17465;47.934;33.430;2022-11-20T00:14:14;48.75;42.75;26.00
30713;PMS7003;17465;47.934;33.430;2022-11-20T00:16:45;51.00;43.00;29.50
30713;PMS7003;17465;47.934;33.430;2022-11-20T00:19:15;53.50;44.50;27.75
30713;PMS7003;17465;47.934;33.430;2022-11-20T00:21:47;39.50;36.75;20.75
30713;PMS7003;17465;47.934;33.430;2022-11-20T00:24:18;40.75;38.50;25.25
30713;PMS7003;17465;47.934;33.430;2022-11-20T00:26:48;32.50;30.75;20.25
30713;PMS7003;17465;47.934;33.430;2022-11-20T00:29:19;28.50;28.00;16.50
30713;PMS7003;17465;47.934;33.430;2022-11-20T00:31:49;28.75;25.75;16.25
30713;PMS7003;17465;47.934;33.430;2022-11-20T00:34:20;28.25;25.00;15.50
30713;PMS7003;17465;47.934;33.430;2022-11-20T00:36:50;29.00;28.50;16.00
30713;PMS7003;17465;47.934;33.430;2022-11-20T00:39:21;23.25;22.75;15.00
30713;PMS7003;17465;47.934;33.430;2022-11-20T00:41:52;31.25;29.25;14.75
30713;PMS7003;17465;47.934;33.430;2022-11-20T00:44:22;24.25;24.25;13.25
30713;PMS7003;17465;47.934;33.430;2022-11-20T00:46:52;21.75;21.75;10.00
30713;PMS7003;17465;47.934;33.430;2022-11-20T00:49:23;26.50;26.50;15.25
30713;PMS7003;17465;47.934;33.430;2022-11-20T00:51:53;28.25;27.00;16.25
30713;PMS7003;17465;47.934;33.430;2022-11-20T00:54:24;33.50;30.75;19.50
30713;PMS7003;17465;47.934;33.430;2022-11-20T00:56:54;33.50;29.25;15.75
30713;PMS7003;17465;47.934;33.430;2022-11-20T00:59:24;33.50;33.50;21.50
30713;PMS7003;17465;47.934;33.430;2022-11-20T01:01:55;53.50;43.25;26.00
30713;PMS7003;17465;47.934;33.430;2022-11-20T01:04:25;45.50;38.25;17.50
30713;PMS7003;17465;47.934;33.430;2022-11-20T01:06:56;39.75;36.75;21.00
30713;PMS7003;17465;47.934;33.430;2022-11-20T01:09:27;35.25;32.00;17.25
30713;PMS7003;17465;47.934;33.430;2022-11-20T01:11:58;34.50;32.00;13.50
30713;PMS7003;17465;47.934;33.430;2022-11-20T01:14:29;32.75;29.75;17.00
30713;PMS7003;17465;47.934;33.430;2022-11-20T01:17:00;34.00;30.50;18.00
30713;PMS7003;17465;47.934;33.430;2022-11-20T01:19:30;27.75;25.50;15.25
30713;PMS7003;17465;47.934;33.430;2022-11-20T01:22:01;31.50;28.00;18.50
30713;PMS7003;17465;47.934;33.430;2022-11-20T01:24:32;30.00;26.25;15.00
30713;PMS7003;17465;47.934;33.430;2022-11-20T01:27:03;32.75;29.75;17.75
30713;PMS7003;17465;47.934;33.430;2022-11-20T01:29:34;30.50;29.00;14.50
30713;PMS7003;17465;47.934;33.430;2022-11-20T01:32:04;29.00;27.50;11.25
30713;PMS7003;17465;47.934;33.430;2022-11-20T01:34:36;24.00;22.75;13.00
30713;PMS7003;17465;47.934;33.430;2022-11-20T01:37:06;29.00;24.75;13.00
30713;PMS7003;17465;47.934;33.430;2022-11-20T01:39:37;27.00;25.25;15.25
30713;PMS7003;17465;47.934;33.430;2022-11-20T01:42:08;21.50;21.50;15.25
30713;PMS7003;17465;47.934;33.430;2022-11-20T01:47:29;36.00;31.50;19.00
30713;PMS7003;17465;47.934;33.430;2022-11-20T01:50:26;38.00;34.00;23.25
30713;PMS7003;17465;47.934;33.430;2022-11-20T01:52:52;42.00;37.50;26.75
30713;PMS7003;17465;47.934;33.430;2022-11-20T01:55:25;45.00;38.25;27.50
30713;PMS7003;17465;47.934;33.430;2022-11-20T01:57:57;39.00;37.25;29.75
30713;PMS7003;17465;47.934;33.430;2022-11-20T02:00:30;43.00;39.25;24.25
30713;PMS7003;17465;47.934;33.430;2022-11-20T02:03:02;36.75;32.25;19.75
30713;PMS7003;17465;47.934;33.430;2022-11-20T02:05:45;42.75;40.50;28.00
30713;PMS7003;17465;47.934;33.430;2022-11-20T02:08:34;49.75;44.50;33.50
30713;PMS7003;17465;47.934;33.430;2022-11-20T02:11:09;57.75;47.50;34.00
30713;PMS7003;17465;47.934;33.430;2022-11-20T02:13:40;51.00;44.25;31.50
30713;PMS7003;17465;47.934;33.430;2022-11-20T02:16:14;44.25;41.25;30.25
30713;PMS7003;17465;47.934;33.430;2022-11-20T02:18:56;32.25;32.00;22.75
30713;PMS7003;17465;47.934;33.430;2022-11-20T02:21:47;39.25;35.50;25.75
30713;PMS7003;17465;47.934;33.430;2022-11-20T02:24:18;50.25;44.75;29.75
30713;PMS7003;17465;47.934;33.430;2022-11-20T02:26:54;53.50;45.25;31.75
30713;PMS7003;17465;47.934;33.430;2022-11-20T02:29:40;54.25;44.50;33.75
30713;PMS7003;17465;47.934;33.430;2022-11-20T02:32:17;53.50;47.00;35.00
30713;PMS7003;17465;47.934;33.430;2022-11-20T02:34:55;45.75;42.50;30.25
30713;PMS7003;17465;47.934;33.430;2022-11-20T02:37:28;39.00;38.00;26.25
30713;PMS7003;17465;47.934;33.430;2022-11-20T02:39:59;44.25;41.25;28.50
30713;PMS7003;17465;47.934;33.430;2022-11-20T02:42:30;39.25;33.00;19.50
30713;PMS7003;17465;47.934;33.430;2022-11-20T02:45:00;25.50;23.75;13.50
30713;PMS7003;17465;47.934;33.430;2022-11-20T02:47:31;34.00;32.50;19.00
30713;PMS7003;17465;47.934;33.430;2022-11-20T02:50:03;35.50;33.00;21.75
30713;PMS7003;17465;47.934;33.430;2022-11-20T02:52:35;25.50;22.50;10.75
30713;PMS7003;17465;47.934;33.430;2022-11-20T02:55:06;22.50;22.50;12.25
30713;PMS7003;17465;47.934;33.430;2022-11-20T02:57:37;22.00;22.00;12.00
30713;PMS7003;17465;47.934;33.430;2022-11-20T03:00:08;29.50;28.50;15.25
30713;PMS7003;17465;47.934;33.430;2022-11-20T03:02:42;24.00;21.75;13.00
30713;PMS7003;17465;47.934;33.430;2022-11-20T03:05:12;23.25;22.25;9.50
30713;PMS7003;17465;47.934;33.430;2022-11-20T03:07:43;32.50;27.00;14.00
30713;PMS7003;17465;47.934;33.430;2022-11-20T03:10:13;27.50;24.00;15.50
30713;PMS7003;17465;47.934;33.430;2022-11-20T03:12:44;27.25;26.50;15.00
30713;PMS7003;17465;47.934;33.430;2022-11-20T03:15:16;26.25;23.00;10.75
30713;PMS7003;17465;47.934;33.430;2022-11-20T03:17:46;35.25;30.75;19.00
30713;PMS7003;17465;47.934;33.430;2022-11-20T03:20:20;53.75;43.75;25.50
30713;PMS7003;17465;47.934;33.430;2022-11-20T03:22:53;47.25;42.00;24.50
30713;PMS7003;17465;47.934;33.430;2022-11-20T03:25:28;48.75;41.75;20.75
30713;PMS7003;17465;47.934;33.430;2022-11-20T03:27:58;41.50;38.00;21.75
30713;PMS7003;17465;47.934;33.430;2022-11-20T03:30:29;36.75;34.25;22.50
30713;PMS7003;17465;47.934;33.430;2022-11-20T03:33:00;38.25;37.25;22.00
30713;PMS7003;17465;47.934;33.430;2022-11-20T03:35:30;36.50;33.50;18.00
30713;PMS7003;17465;47.934;33.430;2022-11-20T03:38:03;35.50;34.00;18.25
30713;PMS7003;17465;47.934;33.430;2022-11-20T03:40:35;27.25;25.25;15.00
30713;PMS7003;17465;47.934;33.430;2022-11-20T03:43:06;36.50;34.00;20.75
30713;PMS7003;17465;47.934;33.430;2022-11-20T03:45:38;36.25;34.75;19.00
30713;PMS7003;17465;47.934;33.430;2022-11-20T03:48:08;62.75;51.00;30.75
30713;PMS7003;17465;47.934;33.430;2022-11-20T03:50:39;37.25;37.25;22.25
30713;PMS7003;17465;47.934;33.430;2022-11-20T03:53:09;49.25;43.50;28.00
30713;PMS7003;17465;47.934;33.430;2022-11-20T03:55:40;59.50;47.25;30.50
30713;PMS7003;17465;47.934;33.430;2022-11-20T03:58:11;40.75;38.75;27.50
30713;PMS7003;17465;47.934;33.430;2022-11-20T04:00:44;47.50;42.75;28.50
30713;PMS7003;17465;47.934;33.430;2022-11-20T04:03:14;50.00;43.00;28.75
30713;PMS7003;17465;47.934;33.430;2022-11-20T04:05:45;30.50;28.75;20.75
30713;PMS7003;17465;47.934;33.430;2022-11-20T04:08:15;35.50;35.50;28.50
30713;PMS7003;17465;47.934;33.430;2022-11-20T04:10:47;60.50;49.50;36.00
30713;PMS7003;17465;47.934;33.430;2022-11-20T04:13:17;46.00;40.50;28.75
30713;PMS7003;17465;47.934;33.430;2022-11-20T04:15:49;49.50;41.75;29.25
30713;PMS7003;17465;47.934;33.430;2022-11-20T04:18:19;52.00;45.50;32.25
30713;PMS7003;17465;47.934;33.430;2022-11-20T04:20:53;53.25;44.50;30.25
30713;PMS7003;17465;47.934;33.430;2022-11-20T04:23:35;44.50;41.25;30.50
30713;PMS7003;17465;47.934;33.430;2022-11-20T04:26:11;48.00;43.25;29.75
30713;PMS7003;17465;47.934;33.430;2022-11-20T04:28:40;62.50;50.50;35.50
30713;PMS7003;17465;47.934;33.430;2022-11-20T04:31:12;59.75;51.00;33.50
30713;PMS7003;17465;47.934;33.430;2022-11-20T04:33:47;73.00;56.75;36.25
30713;PMS7003;17465;47.934;33.430;2022-11-20T04:36:19;67.75;57.00;36.50
30713;PMS7003;17465;47.934;33.430;2022-11-20T04:38:52;63.25;50.75;33.00
30713;PMS7003;17465;47.934;33.430;2022-11-20T04:41:26;49.25;43.50;29.50
30713;PMS7003;17465;47.934;33.430;2022-11-20T04:43:59;56.00;46.25;30.75
30713;PMS7003;17465;47.934;33.430;2022-11-20T04:46:31;50.50;42.75;27.00
30713;PMS7003;17465;47.934;33.430;2022-11-20T04:49:06;49.50;41.75;27.00
30713;PMS7003;17465;47.934;33.430;2022-11-20T04:51:37;48.25;41.25;25.25
30713;PMS7003;17465;47.934;33.430;2022-11-20T04:54:08;51.00;44.00;28.25
30713;PMS7003;17465;47.934;33.430;2022-11-20T04:56:40;49.00;44.00;28.25
30713;PMS7003;17465;47.934;33.430;2022-11-20T04:59:10;63.25;54.00;36.75
30713;PMS7003;17465;47.934;33.430;2022-11-20T05:01:41;52.50;45.00;28.75
30713;PMS7003;17465;47.934;33.430;2022-11-20T05:04:12;42.75;38.00;22.75
30713;PMS7003;17465;47.934;33.430;2022-11-20T05:06:46;38.00;33.25;21.75
30713;PMS7003;17465;47.934;33.430;2022-11-20T05:09:17;40.75;38.25;24.75
30713;PMS7003;17465;47.934;33.430;2022-11-20T05:11:48;56.75;48.00;31.75
30713;PMS7003;17465;47.934;33.430;2022-11-20T05:14:20;46.25;41.75;29.75
30713;PMS7003;17465;47.934;33.430;2022-11-20T05:16:50;45.25;40.00;26.50
30713;PMS7003;17465;47.934;33.430;2022-11-20T05:19:20;46.00;41.25;27.00
30713;PMS7003;17465;47.934;33.430;2022-11-20T05:21:51;49.75;42.50;25.75
30713;PMS7003;17465;47.934;33.430;2022-11-20T05:24:21;49.75;43.50;29.50
30713;PMS7003;17465;47.934;33.430;2022-11-20T05:26:55;38.25;36.25;22.75
30713;PMS7003;17465;47.934;33.430;2022-11-20T05:29:26;33.00;28.50;18.75
30713;PMS7003;17465;47.934;33.430;2022-11-20T05:31:56;24.00;22.00;13.50
30713;PMS7003;17465;47.934;33.430;2022-11-20T05:34:26;28.50;20.75;10.00
30713;PMS7003;17465;47.934;33.430;2022-11-20T05:36:56;38.00;35.75;20.25
30713;PMS7003;17465;47.934;33.430;2022-11-20T05:39:30;38.50;37.25;21.00
30713;PMS7003;17465;47.934;33.430;2022-11-20T05:42:00;33.50;28.50;17.75
30713;PMS7003;17465;47.934;33.430;2022-11-20T05:44:32;33.75;30.00;17.00
30713;PMS7003;17465;47.934;33.430;2022-11-20T05:47:04;35.75;34.00;18.75
30713;PMS7003;17465;47.934;33.430;2022-11-20T05:49:48;35.25;30.25;14.00
30713;PMS7003;17465;47.934;33.430;2022-11-20T05:52:19;40.00;37.00;21.50
30713;PMS7003;17465;47.934;33.430;2022-11-20T05:54:49;43.25;38.25;24.00
30713;PMS7003;17465;47.934;33.430;2022-11-20T05:57:20;44.00;40.25;24.25
30713;PMS7003;17465;47.934;33.430;2022-11-20T05:59:51;45.00;39.25;23.25
30713;PMS7003;17465;47.934;33.430;2022-11-20T06:02:21;44.00;39.25;22.75
30713;PMS7003;17465;47.934;33.430;2022-11-20T06:04:51;40.00;33.50;20.25
30713;PMS7003;17465;47.934;33.430;2022-11-20T06:07:22;41.25;34.75;22.75
30713;PMS7003;17465;47.934;33.430;2022-11-20T06:09:57;47.50;42.50;27.00
30713;PMS7003;17465;47.934;33.430;2022-11-20T06:12:28;36.00;36.00;27.00
30713;PMS7003;17465;47.934;33.430;2022-11-20T06:15:01;33.75;30.00;14.00
30713;PMS7003;17465;47.934;33.430;2022-11-20T06:17:41;26.75;25.25;16.00
30713;PMS7003;17465;47.934;33.430;2022-11-20T06:20:11;33.75;29.50;17.25
30713;PMS7003;17465;47.934;33.430;2022-11-20T06:22:54;39.75;36.75;20.75
30713;PMS7003;17465;47.934;33.430;2022-11-20T06:25:49;36.25;33.00;19.25
30713;PMS7003;17465;47.934;33.430;2022-11-20T06:28:20;42.75;37.50;25.00
30713;PMS7003;17465;47.934;33.430;2022-11-20T06:33:40;47.75;42.50;28.00
30713;PMS7003;17465;47.934;33.430;2022-11-20T06:36:12;41.75;40.00;25.75
30713;PMS7003;17465;47.934;33.430;2022-11-20T06:38:45;44.50;38.50;24.75
30713;PMS7003;17465;47.934;33.430;2022-11-20T06:41:16;44.75;41.25;25.00
30713;PMS7003;17465;47.934;33.430;2022-11-20T06:43:48;43.75;39.50;25.75
30713;PMS7003;17465;47.934;33.430;2022-11-20T06:46:20;42.00;39.75;24.50
30713;PMS7003;17465;47.934;33.430;2022-11-20T06:48:50;36.00;31.75;20.00
30713;PMS7003;17465;47.934;33.430;2022-11-20T06:51:21;39.75;38.00;20.25
30713;PMS7003;17465;47.934;33.430;2022-11-20T06:53:52;34.25;29.50;18.25
30713;PMS7003;17465;47.934;33.430;2022-11-20T06:56:23;38.25;35.00;17.50
30713;PMS7003;17465;47.934;33.430;2022-11-20T06:58:53;29.75;28.75;14.00
30713;PMS7003;17465;47.934;33.430;2022-11-20T07:01:25;40.00;36.75;18.00
30713;PMS7003;17465;47.934;33.430;2022-11-20T07:03:56;33.75;24.75;13.50
30713;PMS7003;17465;47.934;33.430;2022-11-20T07:06:27;32.25;31.25;15.75
30713;PMS7003;17465;47.934;33.430;2022-11-20T07:08:58;37.75;30.75;11.25
30713;PMS7003;17465;47.934;33.430;2022-11-20T07:11:28;40.00;35.75;16.00
30713;PMS7003;17465;47.934;33.430;2022-11-20T07:13:59;41.75;39.75;23.00
30713;PMS7003;17465;47.934;33.430;2022-11-20T07:16:30;33.00;31.00;19.25
30713;PMS7003;17465;47.934;33.430;2022-11-20T07:19:03;40.75;36.75;18.25
30713;PMS7003;17465;47.934;33.430;2022-11-20T07:21:36;44.00;39.00;23.00
30713;PMS7003;17465;47.934;33.430;2022-11-20T07:24:10;37.25;34.00;18.50
30713;PMS7003;17465;47.934;33.430;2022-11-20T07:26:40;36.00;31.75;16.50
30713;PMS7003;17465;47.934;33.430;2022-11-20T07:29:11;41.25;35.25;16.00
30713;PMS7003;17465;47.934;33.430;2022-11-20T07:31:43;40.75;37.00;19.00
30713;PMS7003;17465;47.934;33.430;2022-11-20T07:34:20;34.25;29.00;16.25
30713;PMS7003;17465;47.934;33.430;2022-11-20T07:36:46;38.25;36.25;18.00
30713;PMS7003;17465;47.934;33.430;2022-11-20T07:39:18;31.75;31.75;13.75
30713;PMS7003;17465;47.934;33.430;2022-11-20T07:41:53;32.75;26.25;15.00
30713;PMS7003;17465;47.934;33.430;2022-11-20T07:44:25;36.25;29.75;15.00
30713;PMS7003;17465;47.934;33.430;2022-11-20T07:47:26;41.00;39.75;24.50
30713;PMS7003;17465;47.934;33.430;2022-11-20T07:50:02;42.75;35.50;21.00
30713;PMS7003;17465;47.934;33.430;2022-11-20T08:08:59;30.75;30.75;19.50
30713;PMS7003;17465;47.934;33.430;2022-11-20T08:12:04;35.25;32.00;17.00
30713;PMS7003;17465;47.934;33.430;2022-11-20T08:25:23;33.75;28.75;17.75
30713;PMS7003;17465;47.934;33.430;2022-11-20T08:28:00;39.75;39.50;23.25
30713;PMS7003;17465;47.934;33.430;2022-11-20T08:30:35;25.50;24.25;12.25
30713;PMS7003;17465;47.934;33.430;2022-11-20T08:33:08;44.50;38.75;24.00
30713;PMS7003;17465;47.934;33.430;2022-11-20T08:38:54;43.50;38.00;22.00
30713;PMS7003;17465;47.934;33.430;2022-11-20T08:41:24;39.00;38.25;19.00
30713;PMS7003;17465;47.934;33.430;2022-11-20T08:44:02;40.25;36.75;19.50
30713;PMS7003;17465;47.934;33.430;2022-11-20T08:46:39;38.50;32.75;20.00
30713;PMS7003;17465;47.934;33.430;2022-11-20T08:49:07;38.50;36.25;19.00
30713;PMS7003;17465;47.934;33.430;2022-11-20T08:51:43;37.00;34.50;15.25
30713;PMS7003;17465;47.934;33.430;2022-11-20T09:00:01;41.50;35.25;19.00
30713;PMS7003;17465;47.934;33.430;2022-11-20T09:02:53;36.25;32.75;17.75
30713;PMS7003;17465;47.934;33.430;2022-11-20T09:05:44;38.75;36.75;20.50
30713;PMS7003;17465;47.934;33.430;2022-11-20T09:08:51;42.50;36.00;20.25
30713;PMS7003;17465;47.934;33.430;2022-11-20T09:11:38;29.50;22.75;18.75
30713;PMS7003;17465;47.934;33.430;2022-11-20T09:14:20;30.25;26.25;17.25
30713;PMS7003;17465;47.934;33.430;2022-11-20T09:17:22;35.00;30.00;16.75
30713;PMS7003;17465;47.934;33.430;2022-11-20T09:20:01;41.75;35.75;23.75
30713;PMS7003;17465;47.934;33.430;2022-11-20T09:25:37;44.25;38.00;22.50
30713;PMS7003;17465;47.934;33.430;2022-11-20T09:28:27;45.00;39.25;22.50
30713;PMS7003;17465;47.934;33.430;2022-11-20T09:31:16;51.75;41.75;26.00
30713;PMS7003;17465;47.934;33.430;2022-11-20T09:33:52;42.00;40.00;22.25
30713;PMS7003;17465;47.934;33.430;2022-11-20T09:37:01;41.25;36.75;20.50
30713;PMS7003;17465;47.934;33.430;2022-11-20T09:40:21;46.00;41.25;25.75
30713;PMS7003;17465;47.934;33.430;2022-11-20T09:55:09;49.00;41.00;24.25
30713;PMS7003;17465;47.934;33.430;2022-11-20T10:00:43;40.75;38.25;20.25
30713;PMS7003;17465;47.934;33.430;2022-11-20T10:03:33;53.25;42.50;26.00
30713;PMS7003;17465;47.934;33.430;2022-11-20T10:05:58;51.00;42.50;24.50
30713;PMS7003;17465;47.934;33.430;2022-11-20T10:09:16;40.50;40.00;21.00
30713;PMS7003;17465;47.934;33.430;2022-11-20T10:11:48;49.50;42.25;25.50
30713;PMS7003;17465;47.934;33.430;2022-11-20T10:20:40;45.00;41.50;24.50
30713;PMS7003;17465;47.934;33.430;2022-11-20T10:26:03;44.25;39.75;22.25
30713;PMS7003;17465;47.934;33.430;2022-11-20T10:29:01;37.50;36.00;19.00
30713;PMS7003;17465;47.934;33.430;2022-11-20T10:34:31;43.75;38.00;21.75
30713;PMS7003;17465;47.934;33.430;2022-11-20T10:37:12;49.00;40.50;26.25
30713;PMS7003;17465;47.934;33.430;2022-11-20T10:42:57;51.50;45.00;31.75
30713;PMS7003;17465;47.934;33.430;2022-11-20T10:45:36;32.50;31.25;21.50
30713;PMS7003;17465;47.934;33.430;2022-11-20T10:52:09;26.25;23.75;11.25
30713;PMS7003;17465;47.934;33.430;2022-11-20T11:00:15;34.25;30.75;15.00
30713;PMS7003;17465;47.934;33.430;2022-11-20T11:02:51;32.00;28.75;20.25
30713;PMS7003;17465;47.934;33.430;2022-11-20T11:08:45;25.50;24.00;16.50
30713;PMS7003;17465;47.934;33.430;2022-11-20T11:11:23;33.50;29.50;14.25
30713;PMS7003;17465;47.934;33.430;2022-11-20T11:14:07;25.00;23.50;10.25
30713;PMS7003;17465;47.934;33.430;2022-11-20T11:16:56;13.50;13.50;9.25
30713;PMS7003;17465;47.934;33.430;2022-11-20T11:19:27;27.00;26.75;16.25
30713;PMS7003;17465;47.934;33.430;2022-11-20T11:21:57;27.25;26.50;17.50
30713;PMS7003;17465;47.934;33.430;2022-11-20T11:24:29;27.00;24.25;14.50
30713;PMS7003;17465;47.934;33.430;2022-11-20T11:27:09;25.00;25.00;13.50
30713;PMS7003;17465;47.934;33.430;2022-11-20T11:29:35;22.75;22.25;10.25
30713;PMS7003;17465;47.934;33.430;2022-11-20T11:32:07;35.75;34.50;25.25
30713;PMS7003;17465;47.934;33.430;2022-11-20T11:34:45;36.50;32.25;20.50
30713;PMS7003;17465;47.934;33.430;2022-11-20T11:37:33;31.75;31.25;21.00
30713;PMS7003;17465;47.934;33.430;2022-11-20T11:40:12;34.00;29.25;17.25
30713;PMS7003;17465;47.934;33.430;2022-11-20T11:42:43;27.50;26.00;19.75
30713;PMS7003;17465;47.934;33.430;2022-11-20T11:45:16;22.75;20.50;10.75
30713;PMS7003;17465;47.934;33.430;2022-11-20T11:47:47;21.75;17.50;9.50
30713;PMS7003;17465;47.934;33.430;2022-11-20T11:50:23;20.25;15.00;8.75
30713;PMS7003;17465;47.934;33.430;2022-11-20T11:53:12;16.25;14.00;5.25
30713;PMS7003;17465;47.934;33.430;2022-11-20T11:56:07;16.75;13.75;7.50
30713;PMS7003;17465;47.934;33.430;2022-11-20T11:58:55;21.25;18.25;9.00
30713;PMS7003;17465;47.934;33.430;2022-11-20T12:01:52;22.50;20.00;10.00
30713;PMS7003;17465;47.934;33.430;2022-11-20T12:04:43;21.00;16.75;8.00
30713;PMS7003;17465;47.934;33.430;2022-11-20T12:07:22;20.00;15.25;7.00
30713;PMS7003;17465;47.934;33.430;2022-11-20T12:12:39;17.50;12.25;5.25
30713;PMS7003;17465;47.934;33.430;2022-11-20T12:15:19;20.00;14.00;7.00
30713;PMS7003;17465;47.934;33.430;2022-11-20T12:17:55;19.75;15.00;7.00
30713;PMS7003;17465;47.934;33.430;2022-11-20T12:20:33;23.75;18.00;13.75
30713;PMS7003;17465;47.934;33.430;2022-11-20T12:23:15;22.00;20.00;8.25
30713;PMS7003;17465;47.934;33.430;2022-11-20T12:25:59;17.25;16.75;12.25
30713;PMS7003;17465;47.934;33.430;2022-11-20T12:28:38;21.75;18.00;9.00
30713;PMS7003;17465;47.934;33.430;2022-11-20T12:39:35;34.50;32.50;24.50
30713;PMS7003;17465;47.934;33.430;2022-11-20T12:57:06;25.00;24.50;14.50
30713;PMS7003;17465;47.934;33.430;2022-11-20T13:03:06;14.50;12.75;7.00
30713;PMS7003;17465;47.934;33.430;2022-11-20T13:05:54;18.25;16.50;13.25
30713;PMS7003;17465;47.934;33.430;2022-11-20T13:08:34;14.00;14.00;9.00
30713;PMS7003;17465;47.934;33.430;2022-11-20T13:19:18;14.50;13.50;6.75
30713;PMS7003;17465;47.934;33.430;2022-11-20T13:21:49;11.00;10.50;6.00
30713;PMS7003;17465;47.934;33.430;2022-11-20T13:24:30;18.50;18.50;14.75
30713;PMS7003;17465;47.934;33.430;2022-11-20T13:29:40;17.00;16.00;12.25
30713;PMS7003;17465;47.934;33.430;2022-11-20T13:32:16;18.75;18.00;12.50
30713;PMS7003;17465;47.934;33.430;2022-11-20T13:35:03;22.75;22.75;17.75
30713;PMS7003;17465;47.934;33.430;2022-11-20T13:43:49;12.75;12.75;6.75
30713;PMS7003;17465;47.934;33.430;2022-11-20T13:46:41;14.00;12.75;7.00
30713;PMS7003;17465;47.934;33.430;2022-11-20T13:49:29;17.75;15.25;13.00
30713;PMS7003;17465;47.934;33.430;2022-11-20T13:52:27;24.25;21.50;18.25
30713;PMS7003;17465;47.934;33.430;2022-11-20T13:58:09;26.25;26.25;21.75
30713;PMS7003;17465;47.934;33.430;2022-11-20T14:01:00;33.75;33.75;28.25
30713;PMS7003;17465;47.934;33.430;2022-11-20T14:03:38;18.25;16.75;13.50
30713;PMS7003;17465;47.934;33.430;2022-11-20T14:09:30;16.00;14.50;12.00
30713;PMS7003;17465;47.934;33.430;2022-11-20T14:15:22;24.00;22.25;17.00
30713;PMS7003;17465;47.934;33.430;2022-11-20T14:21:08;11.00;9.75;7.00
30713;PMS7003;17465;47.934;33.430;2022-11-20T14:23:38;16.25;13.25;11.75
30713;PMS7003;17465;47.934;33.430;2022-11-20T14:26:20;8.00;8.00;3.75
30713;PMS7003;17465;47.934;33.430;2022-11-20T14:28:56;9.50;9.50;1.50
30713;PMS7003;17465;47.934;33.430;2022-11-20T14:31:31;5.50;5.50;2.00
30713;PMS7003;17465;47.934;33.430;2022-11-20T14:34:02;10.25;10.25;6.00
30713;PMS7003;17465;47.934;33.430;2022-11-20T14:36:33;10.75;10.75;8.25
30713;PMS7003;17465;47.934;33.430;2022-11-20T14:39:08;7.00;7.00;5.50
30713;PMS7003;17465;47.934;33.430;2022-11-20T14:41:55;7.75;6.50;5.75
30713;PMS7003;17465;47.934;33.430;2022-11-20T14:44:23;12.25;10.25;7.75
30713;PMS7003;17465;47.934;33.430;2022-11-20T14:46:54;11.75;11.00;6.75
30713;PMS7003;17465;47.934;33.430;2022-11-20T14:49:26;11.00;11.00;8.00
30713;PMS7003;17465;47.934;33.430;2022-11-20T14:52:15;8.75;6.25;2.25
30713;PMS7003;17465;47.934;33.430;2022-11-20T14:54:51;10.75;9.00;5.25
30713;PMS7003;17465;47.934;33.430;2022-11-20T14:57:32;19.25;18.50;15.75
30713;PMS7003;17465;47.934;33.430;2022-11-20T15:02:52;6.75;6.75;3.00
30713;PMS7003;17465;47.934;33.430;2022-11-20T15:05:37;11.50;11.50;8.75
30713;PMS7003;17465;47.934;33.430;2022-11-20T15:08:18;10.75;6.75;6.00
30713;PMS7003;17465;47.934;33.430;2022-11-20T15:10:52;16.25;15.50;10.75
30713;PMS7003;17465;47.934;33.430;2022-11-20T15:13:41;15.00;15.00;8.75
30713;PMS7003;17465;47.934;33.430;2022-11-20T15:40:13;17.75;17.75;15.00
30713;PMS7003;17465;47.934;33.430;2022-11-20T15:42:53;15.50;14.75;11.50
30713;PMS7003;17465;47.934;33.430;2022-11-20T15:46:09;15.50;13.00;11.00
30713;PMS7003;17465;47.934;33.430;2022-11-20T15:49:14;8.00;8.00;5.75
30713;PMS7003;17465;47.934;33.430;2022-11-20T15:51:46;6.00;6.00;2.00
30713;PMS7003;17465;47.934;33.430;2022-11-20T15:57:24;8.00;8.00;4.50
30713;PMS7003;17465;47.934;33.430;2022-11-20T15:59:54;10.00;10.00;3.50
30713;PMS7003;17465;47.934;33.430;2022-11-20T16:02:26;5.50;5.00;1.00
30713;PMS7003;17465;47.934;33.430;2022-11-20T16:14:10;10.50;9.75;4.50
30713;PMS7003;17465;47.934;33.430;2022-11-20T16:17:21;20.75;19.25;10.75
30713;PMS7003;17465;47.934;33.430;2022-11-20T16:19:57;14.00;13.25;7.50
30713;PMS7003;17465;47.934;33.430;2022-11-20T16:22:28;26.25;22.50;12.00
30713;PMS7003;17465;47.934;33.430;2022-11-20T16:25:08;23.25;19.75;8.50
30713;PMS7003;17465;47.934;33.430;2022-11-20T16:27:36;22.75;19.75;9.75
30713;PMS7003;17465;47.934;33.430;2022-11-20T16:30:10;27.75;24.00;13.75
30713;PMS7003;17465;47.934;33.430;2022-11-20T16:36:10;21.00;18.50;9.50
30713;PMS7003;17465;47.934;33.430;2022-11-20T16:39:11;18.75;17.25;9.00
30713;PMS7003;17465;47.934;33.430;2022-11-20T16:41:55;21.25;18.50;7.25
30713;PMS7003;17465;47.934;33.430;2022-11-20T16:54:37;33.25;31.25;17.00
30713;PMS7003;17465;47.934;33.430;2022-11-20T17:00:44;19.25;18.75;11.25
30713;PMS7003;17465;47.934;33.430;2022-11-20T17:03:25;17.50;15.75;9.25
30713;PMS7003;17465;47.934;33.430;2022-11-20T17:06:16;16.75;15.25;9.00
30713;PMS7003;17465;47.934;33.430;2022-11-20T17:08:48;13.00;9.25;3.25
30713;PMS7003;17465;47.934;33.430;2022-11-20T17:11:18;11.00;11.00;5.00
30713;PMS7003;17465;47.934;33.430;2022-11-20T17:13:49;6.00;5.00;0.25
30713;PMS7003;17465;47.934;33.430;2022-11-20T17:16:25;15.50;14.00;6.00
30713;PMS7003;17465;47.934;33.430;2022-11-20T17:18:59;12.75;9.75;4.00
30713;PMS7003;17465;47.934;33.430;2022-11-20T17:21:34;11.00;11.00;6.00
30713;PMS7003;17465;47.934;33.430;2022-11-20T17:31:13;13.00;13.00;5.00
30713;PMS7003;17465;47.934;33.430;2022-11-20T17:34:23;31.25;27.00;12.00
30713;PMS7003;17465;47.934;33.430;2022-11-20T17:37:17;21.25;19.75;7.75
30713;PMS7003;17465;47.934;33.430;2022-11-20T17:43:26;14.75;11.50;4.00
30713;PMS7003;17465;47.934;33.430;2022-11-20T17:46:05;16.00;15.00;9.00
30713;PMS7003;17465;47.934;33.430;2022-11-20T17:48:48;18.25;16.00;7.25
30713;PMS7003;17465;47.934;33.430;2022-11-20T17:51:24;22.00;22.00;13.50
30713;PMS7003;17465;47.934;33.430;2022-11-20T17:54:05;19.75;19.00;10.00
30713;PMS7003;17465;47.934;33.430;2022-11-20T17:56:39;32.50;31.25;18.00
30713;PMS7003;17465;47.934;33.430;2022-11-20T17:59:11;44.00;38.50;19.75